Home > Products > Valid Products > TAF

000
FTUS45 KABQ 082336
TAFROW
TAF
KROW 082336Z 0900/0924 VRB05KT P6SM FEW250
     FM090300 25006KT P6SM SKC
     FM092000 15006KT P6SM SKC=



000
FTUS45 KABQ 082336
TAFLVS
TAF
KLVS 082336Z 0900/0924 16008KT P6SM FEW250
     FM090200 VRB06KT P6SM SKC
     FM091100 33005KT P6SM SKC
     FM092000 15007KT P6SM SKC=



000
FTUS45 KABQ 082336
TAFSAF
TAF
KSAF 082336Z 0900/0924 35008KT P6SM FEW250
     FM090200 01006KT P6SM SKC
     FM091100 36012KT P6SM SKC
     FM092100 29007KT P6SM SKC=



000
FTUS45 KABQ 082336
TAFTCC
TAF
KTCC 082336Z 0900/0924 VRB06KT P6SM SKC
     FM091700 VRB04KT P6SM SKC=



000
FTUS45 KABQ 082336
TAFLVS
TAF
KLVS 082336Z 0900/0924 16008KT P6SM FEW250
     FM090200 VRB06KT P6SM SKC
     FM091100 33005KT P6SM SKC
     FM092000 15007KT P6SM SKC=



000
FTUS45 KABQ 082336
TAFROW
TAF
KROW 082336Z 0900/0924 VRB05KT P6SM FEW250
     FM090300 25006KT P6SM SKC
     FM092000 15006KT P6SM SKC=



000
FTUS45 KABQ 082336
TAFSAF
TAF
KSAF 082336Z 0900/0924 35008KT P6SM FEW250
     FM090200 01006KT P6SM SKC
     FM091100 36012KT P6SM SKC
     FM092100 29007KT P6SM SKC=



000
FTUS45 KABQ 082336
TAFABQ
TAF
KABQ 082336Z 0900/0924 36010KT P6SM FEW250
     FM090200 01005KT P6SM SKC
     FM092100 30005KT P6SM SKC=



000
FTUS45 KABQ 082336
TAFFMN
TAF
KFMN 082336Z 0900/0924 29006KT P6SM FEW250
     FM090500 06006KT P6SM SKC
     FM092000 25005KT P6SM SKC=



000
FTUS45 KABQ 082336
TAFGUP
TAF
KGUP 082336Z 0900/0924 06007KT P6SM FEW250
     FM090200 VRB03KT P6SM SKC
     FM092100 03006KT P6SM SKC=



000
FTUS45 KABQ 082336
TAFTCC
TAF
KTCC 082336Z 0900/0924 VRB06KT P6SM SKC
     FM091700 VRB04KT P6SM SKC=



000
FTUS45 KABQ 082336
TAFGUP
TAF
KGUP 082336Z 0900/0924 06007KT P6SM FEW250
     FM090200 VRB03KT P6SM SKC
     FM092100 03006KT P6SM SKC=



000
FTUS45 KABQ 082336
TAFABQ
TAF
KABQ 082336Z 0900/0924 36010KT P6SM FEW250
     FM090200 01005KT P6SM SKC
     FM092100 30005KT P6SM SKC=



000
FTUS45 KABQ 082336
TAFFMN
TAF
KFMN 082336Z 0900/0924 29006KT P6SM FEW250
     FM090500 06006KT P6SM SKC
     FM092000 25005KT P6SM SKC=



000
FTUS45 KABQ 081732
TAFABQ
TAF
KABQ 081732Z 0818/0918 34006KT P6SM FEW250
     FM090200 01005KT P6SM SKC=



000
FTUS45 KABQ 081732
TAFROW
TAF
KROW 081732Z 0818/0918 16007KT P6SM FEW250
     FM090300 28006KT P6SM SKC=



000
FTUS45 KABQ 081732
TAFTCC
TAF
KTCC 081732Z 0818/0918 26007KT P6SM SKC=



000
FTUS45 KABQ 081732
TAFLVS
TAF
KLVS 081732Z 0818/0918 15008KT P6SM FEW250
     FM090200 27006KT P6SM SKC
     FM091100 33005KT P6SM SKC=



000
FTUS45 KABQ 081732
TAFFMN
TAF
KFMN 081732Z 0818/0918 07005KT P6SM SCT250
     FM082000 28008KT P6SM FEW250
     FM090500 06006KT P6SM SKC=



000
FTUS45 KABQ 081732
TAFSAF
TAF
KSAF 081732Z 0818/0918 36010KT P6SM FEW250
     FM082000 33006KT P6SM FEW250
     FM090200 01006KT P6SM SKC
     FM091100 36012KT P6SM SKC=



000
FTUS45 KABQ 081732
TAFGUP
TAF
KGUP 081732Z 0818/0918 VRB03KT P6SM FEW250
     FM081900 02007KT P6SM FEW250
     FM090200 VRB03KT P6SM SKC=



000
FTUS45 KABQ 081140
TAFLVS
TAF
KLVS 081140Z 0812/0912 19015KT P6SM SKC
     FM081500 18009KT P6SM SKC
     FM081800 15008KT P6SM SKC
     FM090100 VRB05KT P6SM SKC=



000
FTUS45 KABQ 081140
TAFROW
TAF
KROW 081140Z 0812/0912 33005KT P6SM SKC
     FM081800 16005KT P6SM FEW250
     FM090300 28006KT P6SM SKC=



000
FTUS45 KABQ 081140
TAFABQ
TAF
KABQ 081140Z 0812/0912 31006KT P6SM SKC=



000
FTUS45 KABQ 081140
TAFLVS
TAF
KLVS 081140Z 0812/0912 19015KT P6SM SKC
     FM081500 18009KT P6SM SKC
     FM081800 15008KT P6SM SKC
     FM090100 VRB05KT P6SM SKC=



000
FTUS45 KABQ 081140
TAFSAF
TAF
KSAF 081140Z 0812/0912 35007KT P6SM SKC
      TEMPO 0814/0818 36014KT
     FM082000 33008KT P6SM SKC
     FM090200 36005KT P6SM SKC=



000
FTUS45 KABQ 081140
TAFTCC
TAF
KTCC 081140Z 0812/0912 26008KT P6SM SKC=



000
FTUS45 KABQ 081140
TAFTCC
TAF
KTCC 081140Z 0812/0912 26008KT P6SM SKC=



000
FTUS45 KABQ 081140
TAFROW
TAF
KROW 081140Z 0812/0912 33005KT P6SM SKC
     FM081800 16005KT P6SM FEW250
     FM090300 28006KT P6SM SKC=



000
FTUS45 KABQ 081140
TAFGUP
TAF
KGUP 081140Z 0812/0912 VRB05KT P6SM SKC
      TEMPO 0820/0824 34007KT=



000
FTUS45 KABQ 081140
TAFFMN
TAF
KFMN 081140Z 0812/0912 07005KT P6SM FEW250
     FM082000 28008KT P6SM SKC
     FM090200 VRB04KT P6SM SKC=



000
FTUS45 KABQ 081140
TAFABQ
TAF
KABQ 081140Z 0812/0912 31006KT P6SM SKC=



000
FTUS45 KABQ 081140
TAFGUP
TAF
KGUP 081140Z 0812/0912 VRB05KT P6SM SKC
      TEMPO 0820/0824 34007KT=



000
FTUS45 KABQ 081140
TAFFMN
TAF
KFMN 081140Z 0812/0912 07005KT P6SM FEW250
     FM082000 28008KT P6SM SKC
     FM090200 VRB04KT P6SM SKC=



000
FTUS45 KABQ 081140
TAFSAF
TAF
KSAF 081140Z 0812/0912 35007KT P6SM SKC
      TEMPO 0814/0818 36014KT
     FM082000 33008KT P6SM SKC
     FM090200 36005KT P6SM SKC=



000
FTUS45 KABQ 080936 AAA
TAFLVS
TAF AMD
KLVS 080936Z 0810/0906 19015KT P6SM SKC
     FM081300 18009KT P6SM SKC
     FM081800 15008KT P6SM SKC
     FM090100 VRB05KT P6SM SKC=



000
FTUS45 KABQ 080528
TAFABQ
TAF
KABQ 080528Z 0806/0906 35006KT P6SM SKC=



000
FTUS45 KABQ 080528
TAFTCC
TAF
KTCC 080528Z 0806/0906 05008KT P6SM SKC
     FM081000 26005KT P6SM FEW250=



000
FTUS45 KABQ 080528
TAFGUP
TAF
KGUP 080528Z 0806/0906 VRB03KT P6SM SKC
      TEMPO 0820/0824 34007KT=



000
FTUS45 KABQ 080528
TAFROW
TAF
KROW 080528Z 0806/0906 01005KT P6SM SCT250
     FM081800 16005KT P6SM FEW250=



000
FTUS45 KABQ 080528
TAFFMN
TAF
KFMN 080528Z 0806/0906 07005KT P6SM FEW250
     FM082000 28008KT P6SM SKC
     FM090200 VRB04KT P6SM SKC=



000
FTUS45 KABQ 080528
TAFLVS
TAF
KLVS 080528Z 0806/0906 03005KT P6SM FEW250
     FM081800 15008KT P6SM FEW200
     FM090100 VRB05KT P6SM SKC=



000
FTUS45 KABQ 080528
TAFSAF
TAF
KSAF 080528Z 0806/0906 01005KT P6SM FEW250
     FM081300 36012KT P6SM SKC
     FM082000 33008KT P6SM SKC=



000
FTUS45 KABQ 080528
TAFABQ
TAF
KABQ 080528Z 0806/0906 35006KT P6SM SKC=



000
FTUS45 KABQ 080528
TAFTCC
TAF
KTCC 080528Z 0806/0906 05008KT P6SM SKC
     FM081000 26005KT P6SM FEW250=



000
FTUS45 KABQ 080528
TAFROW
TAF
KROW 080528Z 0806/0906 01005KT P6SM SCT250
     FM081800 16005KT P6SM FEW250=



000
FTUS45 KABQ 080528
TAFLVS
TAF
KLVS 080528Z 0806/0906 03005KT P6SM FEW250
     FM081800 15008KT P6SM FEW200
     FM090100 VRB05KT P6SM SKC=



000
FTUS45 KABQ 080528
TAFSAF
TAF
KSAF 080528Z 0806/0906 01005KT P6SM FEW250
     FM081300 36012KT P6SM SKC
     FM082000 33008KT P6SM SKC=



000
FTUS45 KABQ 080528
TAFGUP
TAF
KGUP 080528Z 0806/0906 VRB03KT P6SM SKC
      TEMPO 0820/0824 34007KT=



000
FTUS45 KABQ 080528
TAFFMN
TAF
KFMN 080528Z 0806/0906 07005KT P6SM FEW250
     FM082000 28008KT P6SM SKC
     FM090200 VRB04KT P6SM SKC=



000
FTUS45 KABQ 072336
TAFLVS
TAF
KLVS 072336Z 0800/0824 18010KT P6SM FEW250
     FM080200 11007KT P6SM FEW250
     FM081000 03005KT P6SM FEW200
     FM082000 15008KT P6SM FEW120=



000
FTUS45 KABQ 072336
TAFABQ
TAF
KABQ 072336Z 0800/0824 34011KT P6SM SKC
     FM080200 01006KT P6SM SKC
     FM082000 33006KT P6SM SKC=



000
FTUS45 KABQ 072336
TAFTCC
TAF
KTCC 072336Z 0800/0824 07008KT P6SM FEW250
     FM080400 VRB03KT P6SM SCT250
     FM081600 25006KT P6SM FEW250=



000
FTUS45 KABQ 072336
TAFROW
TAF
KROW 072336Z 0800/0824 04005KT P6SM SCT250
     FM081800 16008KT P6SM FEW250=



000
FTUS45 KABQ 072336
TAFSAF
TAF
KSAF 072336Z 0800/0824 33012KT P6SM SKC
     FM080200 01006KT P6SM FEW250
     FM081300 36012KT P6SM SKC
     FM082000 33008KT P6SM SKC=



000
FTUS45 KABQ 072336
TAFGUP
TAF
KGUP 072336Z 0800/0824 00000KT P6SM SKC
     FM082000 34006KT P6SM SKC=



000
FTUS45 KABQ 072336
TAFFMN
TAF
KFMN 072336Z 0800/0824 VRB04KT P6SM SKC
     FM080700 08005KT P6SM FEW250
     FM082000 26007KT P6SM SKC=



000
FTUS45 KABQ 072336
TAFROW
TAF
KROW 072336Z 0800/0824 04005KT P6SM SCT250
     FM081800 16008KT P6SM FEW250=



000
FTUS45 KABQ 072336
TAFTCC
TAF
KTCC 072336Z 0800/0824 07008KT P6SM FEW250
     FM080400 VRB03KT P6SM SCT250
     FM081600 25006KT P6SM FEW250=



000
FTUS45 KABQ 072336
TAFGUP
TAF
KGUP 072336Z 0800/0824 00000KT P6SM SKC
     FM082000 34006KT P6SM SKC=



000
FTUS45 KABQ 072336
TAFSAF
TAF
KSAF 072336Z 0800/0824 33012KT P6SM SKC
     FM080200 01006KT P6SM FEW250
     FM081300 36012KT P6SM SKC
     FM082000 33008KT P6SM SKC=



000
FTUS45 KABQ 072336
TAFFMN
TAF
KFMN 072336Z 0800/0824 VRB04KT P6SM SKC
     FM080700 08005KT P6SM FEW250
     FM082000 26007KT P6SM SKC=



000
FTUS45 KABQ 072336
TAFABQ
TAF
KABQ 072336Z 0800/0824 34011KT P6SM SKC
     FM080200 01006KT P6SM SKC
     FM082000 33006KT P6SM SKC=



000
FTUS45 KABQ 072336
TAFLVS
TAF
KLVS 072336Z 0800/0824 18010KT P6SM FEW250
     FM080200 11007KT P6SM FEW250
     FM081000 03005KT P6SM FEW200
     FM082000 15008KT P6SM FEW120=



000
FTUS45 KABQ 072004 AAA
TAFROW
TAF AMD
KROW 072004Z 0720/0818 03014KT P6SM SKC
     FM072200 05006KT P6SM FEW250
     FM081600 15006KT P6SM FEW250=



000
FTUS45 KABQ 072004 AAA
TAFABQ
TAF AMD
KABQ 072004Z 0720/0818 33014KT P6SM SCT250
     FM080200 01006KT P6SM FEW250=



000
FTUS45 KABQ 071720
TAFGUP
TAF
KGUP 071720Z 0718/0818 29006KT P6SM FEW250
     FM080200 00000KT P6SM FEW250=



000
FTUS45 KABQ 071720
TAFABQ
TAF
KABQ 071720Z 0718/0818 34009KT P6SM SCT250
     FM080200 01006KT P6SM FEW250=



000
FTUS45 KABQ 071720
TAFSAF
TAF
KSAF 071720Z 0718/0818 35014KT P6SM SCT250
     FM072100 32007KT P6SM BKN250
     FM080200 01006KT P6SM SCT250
     FM081300 36012KT P6SM FEW250=



000
FTUS45 KABQ 071720
TAFFMN
TAF
KFMN 071720Z 0718/0818 15004KT P6SM SCT250
     FM072000 28011KT P6SM SCT250
     FM080200 VRB04KT P6SM SCT250
     FM080700 08005KT P6SM FEW250=



000
FTUS45 KABQ 071720
TAFLVS
TAF
KLVS 071720Z 0718/0818 01006KT P6SM BKN200
     FM072000 16010KT P6SM BKN200
     FM080200 10007KT P6SM SCT200
     FM081000 03005KT P6SM FEW200=



000
FTUS45 KABQ 071720
TAFROW
TAF
KROW 071720Z 0718/0818 01011KT P6SM SKC
     FM072200 05006KT P6SM FEW250
     FM081600 15006KT P6SM FEW250=



000
FTUS45 KABQ 071720
TAFTCC
TAF
KTCC 071720Z 0718/0818 05009KT P6SM SCT250
     FM072100 08009KT P6SM SCT250
     FM080400 VRB03KT P6SM SCT250
     FM081600 27006KT P6SM FEW250=



000
FTUS45 KABQ 071122
TAFGUP
TAF
KGUP 071122Z 0712/0812 VRB05KT P6SM SKC=



000
FTUS45 KABQ 071122
TAFTCC
TAF
KTCC 071122Z 0712/0812 28007KT P6SM FEW250
     FM071500 01010KT P6SM FEW250
     FM071800 05009KT P6SM FEW250
     FM072100 08008KT P6SM SKC
     FM080400 VRB05KT P6SM SKC=



000
FTUS45 KABQ 071122
TAFLVS
TAF
KLVS 071122Z 0712/0812 02007KT P6SM FEW250
     FM071900 15010KT P6SM SKC=



000
FTUS45 KABQ 071122
TAFROW
TAF
KROW 071122Z 0712/0812 33005KT P6SM SKC
     FM071700 01010KT P6SM SKC
     FM072200 05008KT P6SM SKC
     FM080200 VRB05KT P6SM SKC=



000
FTUS45 KABQ 071122
TAFABQ
TAF
KABQ 071122Z 0712/0812 36010KT P6SM SKC
     FM071800 33008KT P6SM SKC
     FM080200 01006KT P6SM SKC=



000
FTUS45 KABQ 071122
TAFSAF
TAF
KSAF 071122Z 0712/0812 33007KT P6SM SKC
     FM071300 35011KT P6SM FEW250
      TEMPO 0715/0718 35014G21KT
     FM072000 33007KT P6SM SKC
     FM080200 02006KT P6SM SKC=



000
FTUS45 KABQ 071122
TAFFMN
TAF
KFMN 071122Z 0712/0812 VRB05KT P6SM FEW250
     FM072000 28010KT P6SM FEW250
     FM080100 VRB05KT P6SM FEW250
     FM080500 07005KT P6SM VCFG FEW003=



000
FTUS45 KABQ 070526
TAFTCC
TAF
KTCC 070526Z 0706/0806 27007KT P6SM SKC
     FM071500 03010KT P6SM SKC
     FM072100 08008KT P6SM SKC=



000
FTUS45 KABQ 070526
TAFSAF
TAF
KSAF 070526Z 0706/0806 34007KT P6SM SKC
     FM071300 35014KT P6SM SKC
     FM072000 33007KT P6SM SKC
     FM080200 02006KT P6SM SKC=



000
FTUS45 KABQ 070526
TAFFMN
TAF
KFMN 070526Z 0706/0806 VRB05KT P6SM SKC
      TEMPO 0720/0724 28010KT=



000
FTUS45 KABQ 070526
TAFROW
TAF
KROW 070526Z 0706/0806 33005KT P6SM SKC
     FM071700 03007KT P6SM SKC
     FM072200 08006KT P6SM SKC=



000
FTUS45 KABQ 070526
TAFABQ
TAF
KABQ 070526Z 0706/0806 36011KT P6SM SKC
     FM071600 33008KT P6SM SKC
     FM080200 01006KT P6SM SKC=



000
FTUS45 KABQ 070526
TAFGUP
TAF
KGUP 070526Z 0706/0806 VRB05KT P6SM SKC=



000
FTUS45 KABQ 070526
TAFLVS
TAF
KLVS 070526Z 0706/0806 34007KT P6SM SKC
     FM071900 15010KT P6SM SKC=



000
FTUS45 KABQ 070526
TAFTCC
TAF
KTCC 070526Z 0706/0806 27007KT P6SM SKC
     FM071500 03010KT P6SM SKC
     FM072100 08008KT P6SM SKC=



000
FTUS45 KABQ 070526
TAFFMN
TAF
KFMN 070526Z 0706/0806 VRB05KT P6SM SKC
      TEMPO 0720/0724 28010KT=



000
FTUS45 KABQ 070526
TAFLVS
TAF
KLVS 070526Z 0706/0806 34007KT P6SM SKC
     FM071900 15010KT P6SM SKC=



000
FTUS45 KABQ 070526
TAFROW
TAF
KROW 070526Z 0706/0806 33005KT P6SM SKC
     FM071700 03007KT P6SM SKC
     FM072200 08006KT P6SM SKC=



000
FTUS45 KABQ 070526
TAFGUP
TAF
KGUP 070526Z 0706/0806 VRB05KT P6SM SKC=



000
FTUS45 KABQ 070526
TAFABQ
TAF
KABQ 070526Z 0706/0806 36011KT P6SM SKC
     FM071600 33008KT P6SM SKC
     FM080200 01006KT P6SM SKC=



000
FTUS45 KABQ 070526
TAFSAF
TAF
KSAF 070526Z 0706/0806 34007KT P6SM SKC
     FM071300 35014KT P6SM SKC
     FM072000 33007KT P6SM SKC
     FM080200 02006KT P6SM SKC=



000
FTUS45 KABQ 070245 AAA
TAFABQ
TAF AMD
KABQ 070245Z 0703/0724 VRB05KT P6SM SKC
      TEMPO 0703/0706 36015KT
     FM072200 34009KT P6SM FEW250=



000
FTUS45 KABQ 070245 AAA
TAFABQ
TAF AMD
KABQ 070245Z 0703/0724 VRB05KT P6SM SKC
      TEMPO 0703/0706 36015KT
     FM072200 34009KT P6SM FEW250=



000
FTUS45 KABQ 062325
TAFSAF
TAF
KSAF 062325Z 0700/0724 34007KT P6SM SKC
     FM071300 35012KT P6SM FEW250
     FM072000 25007KT P6SM FEW250=



000
FTUS45 KABQ 062325
TAFGUP
TAF
KGUP 062325Z 0700/0724 VRB05KT P6SM SKC=



000
FTUS45 KABQ 062325
TAFROW
TAF
KROW 062325Z 0700/0724 17009KT P6SM SKC
     FM070200 24006KT P6SM SKC
     FM071200 33005KT P6SM SKC
     FM071800 03007KT P6SM SKC=



000
FTUS45 KABQ 062325
TAFLVS
TAF
KLVS 062325Z 0700/0724 19007KT P6SM SKC
     FM070200 33007KT P6SM FEW250
     FM071900 18008KT P6SM SCT250=



000
FTUS45 KABQ 062325
TAFABQ
TAF
KABQ 062325Z 0700/0724 VRB05KT P6SM SKC
     FM072200 34009KT P6SM FEW250=



000
FTUS45 KABQ 062325
TAFFMN
TAF
KFMN 062325Z 0700/0724 VRB05KT P6SM SKC
     FM072000 28009KT P6SM FEW250=



000
FTUS45 KABQ 062325
TAFTCC
TAF
KTCC 062325Z 0700/0724 20009KT P6SM SKC
     FM070100 24007KT P6SM SKC
     FM070600 28008KT P6SM FEW250
     FM071200 31006KT P6SM FEW250
     FM071800 04009KT P6SM FEW250=



000
FTUS45 KABQ 062325
TAFTCC
TAF
KTCC 062325Z 0700/0724 20009KT P6SM SKC
     FM070100 24007KT P6SM SKC
     FM070600 28008KT P6SM FEW250
     FM071200 31006KT P6SM FEW250
     FM071800 04009KT P6SM FEW250=



000
FTUS45 KABQ 062325
TAFGUP
TAF
KGUP 062325Z 0700/0724 VRB05KT P6SM SKC=



000
FTUS45 KABQ 062325
TAFROW
TAF
KROW 062325Z 0700/0724 17009KT P6SM SKC
     FM070200 24006KT P6SM SKC
     FM071200 33005KT P6SM SKC
     FM071800 03007KT P6SM SKC=



000
FTUS45 KABQ 062325
TAFFMN
TAF
KFMN 062325Z 0700/0724 VRB05KT P6SM SKC
     FM072000 28009KT P6SM FEW250=



000
FTUS45 KABQ 062325
TAFLVS
TAF
KLVS 062325Z 0700/0724 19007KT P6SM SKC
     FM070200 33007KT P6SM FEW250
     FM071900 18008KT P6SM SCT250=



000
FTUS45 KABQ 062325
TAFABQ
TAF
KABQ 062325Z 0700/0724 VRB05KT P6SM SKC
     FM072200 34009KT P6SM FEW250=



000
FTUS45 KABQ 062325
TAFSAF
TAF
KSAF 062325Z 0700/0724 34007KT P6SM SKC
     FM071300 35012KT P6SM FEW250
     FM072000 25007KT P6SM FEW250=



000
FTUS45 KABQ 061720
TAFTCC
TAF
KTCC 061720Z 0618/0718 22006KT P6SM SKC
     FM062000 22011G18KT P6SM SKC
     FM070100 23007KT P6SM FEW250
     FM070600 27008KT P6SM FEW250
     FM071200 31007KT P6SM FEW250=



000
FTUS45 KABQ 061720
TAFGUP
TAF
KGUP 061720Z 0618/0718 VRB03KT P6SM SKC=



000
FTUS45 KABQ 061720
TAFROW
TAF
KROW 061720Z 0618/0718 17007KT P6SM SKC
     FM070200 23006KT P6SM SKC
     FM071200 33005KT P6SM SKC=



000
FTUS45 KABQ 061720
TAFABQ
TAF
KABQ 061720Z 0618/0718 33008KT P6SM SKC
     FM070100 36006KT P6SM FEW250=



000
FTUS45 KABQ 061720
TAFLVS
TAF
KLVS 061720Z 0618/0718 18009KT P6SM SKC
     FM070100 35007KT P6SM FEW250=



000
FTUS45 KABQ 061720
TAFSAF
TAF
KSAF 061720Z 0618/0718 33011KT P6SM SKC
     FM062100 30007KT P6SM FEW250
     FM070200 35007KT P6SM FEW250
     FM071300 35012KT P6SM FEW250=



000
FTUS45 KABQ 061720
TAFFMN
TAF
KFMN 061720Z 0618/0718 13008KT P6SM SKC
     FM062100 28009KT P6SM FEW250
     FM070200 VRB04KT P6SM SCT250
     FM070700 08005KT P6SM FEW250=



000
FTUS45 KABQ 061125
TAFGUP
TAF
KGUP 061125Z 0612/0712 VRB05KT P6SM SKC=



000
FTUS45 KABQ 061125
TAFTCC
TAF
KTCC 061125Z 0612/0712 25008KT P6SM SKC
     FM062000 22011G18KT P6SM SKC
     FM070100 22008KT P6SM FEW250
     FM070600 27008KT P6SM SKC
     FM071000 31008KT P6SM SKC=



000
FTUS45 KABQ 061125
TAFROW
TAF
KROW 061125Z 0612/0712 VRB05KT P6SM SKC
     FM061900 16008KT P6SM SKC
     FM070200 23006KT P6SM SKC=



000
FTUS45 KABQ 061125
TAFLVS
TAF
KLVS 061125Z 0612/0712 VRB05KT P6SM SKC
     FM061700 16010KT P6SM SKC
     FM062200 22010KT P6SM SCT250
     FM070100 34008KT P6SM SCT200=



000
FTUS45 KABQ 061125
TAFFMN
TAF
KFMN 061125Z 0612/0712 08006KT P6SM SKC
     FM061700 VRB05KT P6SM FEW250
     FM062100 29011KT P6SM SCT250
     FM070200 VRB05KT P6SM SCT250=



000
FTUS45 KABQ 061125
TAFROW
TAF
KROW 061125Z 0612/0712 VRB05KT P6SM SKC
     FM061900 16008KT P6SM SKC
     FM070200 23006KT P6SM SKC=



000
FTUS45 KABQ 061125
TAFTCC
TAF
KTCC 061125Z 0612/0712 25008KT P6SM SKC
     FM062000 22011G18KT P6SM SKC
     FM070100 22008KT P6SM FEW250
     FM070600 27008KT P6SM SKC
     FM071000 31008KT P6SM SKC=



000
FTUS45 KABQ 061125
TAFABQ
TAF
KABQ 061125Z 0612/0712 01010KT P6SM SKC
     FM061900 32009KT P6SM SKC
     FM070100 36008KT P6SM FEW250=



000
FTUS45 KABQ 061125
TAFFMN
TAF
KFMN 061125Z 0612/0712 08006KT P6SM SKC
     FM061700 VRB05KT P6SM FEW250
     FM062100 29011KT P6SM SCT250
     FM070200 VRB05KT P6SM SCT250=



000
FTUS45 KABQ 061125
TAFGUP
TAF
KGUP 061125Z 0612/0712 VRB05KT P6SM SKC=



000
FTUS45 KABQ 061125
TAFLVS
TAF
KLVS 061125Z 0612/0712 VRB05KT P6SM SKC
     FM061700 16010KT P6SM SKC
     FM062200 22010KT P6SM SCT250
     FM070100 34008KT P6SM SCT200=



000
FTUS45 KABQ 061125
TAFSAF
TAF
KSAF 061125Z 0612/0712 35010KT P6SM SKC
      TEMPO 0613/0617 36014G22KT
     FM062000 30008KT P6SM FEW250
     FM070200 36010KT P6SM FEW250=



000
FTUS45 KABQ 061125
TAFABQ
TAF
KABQ 061125Z 0612/0712 01010KT P6SM SKC
     FM061900 32009KT P6SM SKC
     FM070100 36008KT P6SM FEW250=



000
FTUS45 KABQ 061125
TAFSAF
TAF
KSAF 061125Z 0612/0712 35010KT P6SM SKC
      TEMPO 0613/0617 36014G22KT
     FM062000 30008KT P6SM FEW250
     FM070200 36010KT P6SM FEW250=



000
FTUS45 KABQ 060522
TAFABQ
TAF
KABQ 060522Z 0606/0706 33007KT P6SM SKC
     FM061200 36012KT P6SM SKC
     FM061900 32009KT P6SM SCT250
     FM070100 35005KT P6SM BKN200=



000
FTUS45 KABQ 060522
TAFTCC
TAF
KTCC 060522Z 0606/0706 28008KT P6SM SKC
     FM062000 23013G20KT P6SM SKC
     FM070100 22008KT P6SM SCT250=



000
FTUS45 KABQ 060522
TAFLVS
TAF
KLVS 060522Z 0606/0706 14007KT P6SM SKC
     FM061900 18011KT P6SM SKC
     FM062200 21012G20KT P6SM SCT250
     FM070100 33008KT P6SM BKN200=



000
FTUS45 KABQ 060522
TAFFMN
TAF
KFMN 060522Z 0606/0706 28007KT P6SM SKC
     FM061200 09006KT P6SM VCFG FEW003 SCT250
     FM061700 VRB05KT P6SM SCT200
     FM062100 29010G17KT P6SM BKN200
     FM070200 28008KT P6SM BKN200=



000
FTUS45 KABQ 060522
TAFSAF
TAF
KSAF 060522Z 0606/0706 36010KT P6SM SKC
     FM061400 36015G24KT P6SM SKC
     FM062000 32008KT P6SM SCT250
     FM070200 36006KT P6SM BKN200=



000
FTUS45 KABQ 060522
TAFGUP
TAF
KGUP 060522Z 0606/0706 VRB03KT P6SM SKC
     FM062100 02006KT P6SM BKN200
     FM070100 VRB03KT P6SM BKN200=



000
FTUS45 KABQ 060522
TAFROW
TAF
KROW 060522Z 0606/0706 29006KT P6SM SKC
     FM061800 16008KT P6SM SKC
     FM070200 23006KT P6SM SKC=



    US Dept of Commerce
    National Oceanic and Atmospheric Administration
    National Weather Service
    1325 East West Highway
    Silver Spring, MD 20910
    Page Author: NWS Internet Services Team
Disclaimer
Information Quality
Credits
Glossary
Privacy Policy
Freedom of Information Act (FOIA)
About Us
Career Opportunities